createdAt,value
2023-05-12T00:01:48.318Z,70.80
2023-05-12T00:04:15.850Z,70.80
2023-05-12T00:06:43.366Z,70.80
2023-05-12T00:09:11.061Z,70.80
2023-05-12T00:11:38.919Z,70.90
2023-05-12T00:14:07.338Z,70.90
2023-05-12T00:16:34.997Z,70.90
2023-05-12T00:19:02.965Z,70.90
2023-05-12T00:21:30.566Z,70.90
2023-05-12T00:23:58.185Z,70.90
2023-05-12T00:26:26.068Z,70.30
2023-05-12T00:28:53.730Z,71.00
2023-05-12T00:31:21.662Z,70.90
2023-05-12T00:33:49.362Z,70.90
2023-05-12T00:36:16.783Z,70.80
2023-05-12T00:38:44.551Z,70.80
2023-05-12T00:41:12.397Z,70.90
2023-05-12T00:43:40.145Z,70.90
2023-05-12T00:46:08.639Z,70.90
2023-05-12T00:48:37.031Z,70.90
2023-05-12T00:51:06.625Z,70.80
2023-05-12T00:53:45.416Z,70.80
2023-05-12T00:56:17.132Z,70.80
2023-05-12T00:58:45.270Z,70.80
2023-05-12T01:01:13.824Z,70.70
2023-05-12T01:03:41.776Z,70.80
2023-05-12T01:06:46.526Z,70.70
2023-05-12T01:09:15.702Z,70.80
2023-05-12T01:11:43.493Z,70.70
2023-05-12T01:14:11.451Z,70.70
2023-05-12T01:16:52.273Z,70.80
2023-05-12T01:19:48.086Z,70.70
2023-05-12T01:22:17.738Z,70.70
2023-05-12T01:25:09.113Z,70.70
2023-05-12T01:27:40.301Z,70.70
2023-05-12T01:30:10.867Z,70.70
2023-05-12T01:32:40.677Z,70.60
2023-05-12T01:35:09.099Z,70.60
2023-05-12T01:37:39.372Z,70.60
2023-05-12T01:40:08.281Z,70.60
2023-05-12T01:42:36.253Z,70.60
2023-05-12T01:45:04.178Z,70.70
2023-05-12T01:47:32.807Z,70.60
2023-05-12T01:50:07.771Z,70.60
2023-05-12T01:52:35.680Z,70.60
2023-05-12T01:55:07.669Z,70.60
2023-05-12T01:57:41.153Z,70.60
2023-05-12T02:00:09.950Z,70.60
2023-05-12T02:02:43.655Z,70.50
2023-05-12T02:05:13.347Z,71.00
2023-05-12T02:07:43.207Z,70.50
2023-05-12T02:10:11.914Z,70.50
2023-05-12T02:12:39.708Z,70.50
2023-05-12T02:15:07.876Z,70.50
2023-05-12T02:17:38.542Z,70.70
2023-05-12T02:20:08.626Z,70.50
2023-05-12T02:22:36.462Z,70.50
2023-05-12T02:25:04.837Z,70.50
2023-05-12T02:27:32.962Z,70.50
2023-05-12T02:30:01.187Z,70.40
2023-05-12T02:32:30.221Z,70.40
2023-05-12T02:34:57.887Z,70.50
2023-05-12T02:37:25.946Z,70.50
2023-05-12T02:39:54.281Z,70.40
2023-05-12T02:42:22.013Z,70.40
2023-05-12T02:44:49.994Z,70.30
2023-05-12T02:47:17.821Z,70.40
2023-05-12T02:49:45.391Z,70.40
2023-05-12T02:52:13.868Z,70.40
2023-05-12T02:54:41.995Z,70.40
2023-05-12T02:57:11.219Z,70.40
2023-05-12T02:59:38.896Z,70.30
2023-05-12T03:02:06.796Z,70.30
2023-05-12T03:04:34.629Z,70.20
2023-05-12T03:07:04.002Z,70.20
2023-05-12T03:09:32.257Z,70.20
2023-05-12T03:12:00.139Z,70.80
2023-05-12T03:14:29.072Z,70.20
2023-05-12T03:19:39.888Z,70.10
2023-05-12T03:22:07.730Z,70.10
2023-05-12T03:24:36.936Z,70.10
2023-05-12T03:27:05.896Z,70.20
2023-05-12T03:29:33.359Z,70.10
2023-05-12T03:32:01.284Z,70.10
2023-05-12T03:34:29.160Z,70.10
2023-05-12T03:36:59.220Z,70.10
2023-05-12T03:39:27.063Z,70.10
2023-05-12T03:41:55.622Z,70.10
2023-05-12T03:44:23.159Z,70.00
2023-05-12T03:46:51.115Z,70.00
2023-05-12T03:49:18.856Z,70.00
2023-05-12T03:51:46.751Z,70.00
2023-05-12T03:54:14.484Z,70.00
2023-05-12T03:56:43.064Z,70.00
2023-05-12T03:59:12.304Z,70.00
2023-05-12T04:02:05.768Z,70.00
2023-05-12T04:04:58.756Z,70.00
2023-05-12T04:07:26.752Z,70.00
2023-05-12T04:09:54.672Z,70.00
2023-05-12T04:12:22.418Z,69.90
2023-05-12T04:14:50.686Z,69.80
2023-05-12T04:17:19.521Z,69.80
2023-05-12T04:19:47.277Z,69.80
2023-05-12T04:22:15.047Z,69.80
2023-05-12T04:24:42.692Z,69.80
2023-05-12T04:27:10.623Z,69.70
2023-05-12T04:29:38.602Z,69.70
2023-05-12T04:32:07.163Z,70.00
2023-05-12T04:34:36.212Z,69.70
2023-05-12T04:37:03.884Z,69.70
2023-05-12T04:39:31.636Z,69.80
2023-05-12T04:42:02.401Z,69.70
2023-05-12T04:44:33.025Z,69.70
2023-05-12T04:47:01.342Z,69.70
2023-05-12T04:49:31.220Z,69.60
2023-05-12T04:51:58.967Z,69.60
2023-05-12T04:54:26.779Z,69.60
2023-05-12T04:56:54.630Z,69.60
2023-05-12T04:59:22.996Z,69.60
2023-05-12T05:01:52.731Z,69.50
2023-05-12T05:04:21.023Z,69.50
2023-05-12T05:06:48.564Z,69.50
2023-05-12T05:09:16.276Z,69.50
2023-05-12T05:11:44.671Z,69.50
2023-05-12T05:14:13.294Z,69.50
2023-05-12T05:16:40.997Z,70.00
2023-05-12T05:19:19.982Z,69.40
2023-05-12T05:21:53.927Z,69.40
2023-05-12T05:24:21.896Z,69.30
2023-05-12T05:26:50.167Z,69.30
2023-05-12T05:29:18.340Z,69.40
2023-05-12T05:31:46.127Z,69.50
2023-05-12T05:34:15.022Z,69.60
2023-05-12T05:36:42.877Z,69.60
2023-05-12T05:39:11.361Z,69.50
2023-05-12T05:41:38.990Z,69.60
2023-05-12T05:44:07.006Z,69.60
2023-05-12T05:46:34.934Z,69.60
2023-05-12T05:49:02.745Z,69.60
2023-05-12T05:51:31.972Z,69.60
2023-05-12T05:54:00.550Z,69.60
2023-05-12T05:56:33.053Z,69.60
2023-05-12T05:59:03.294Z,69.70
2023-05-12T06:01:32.676Z,70.10
2023-05-12T06:04:01.203Z,70.30
2023-05-12T06:06:29.994Z,70.60
2023-05-12T06:08:57.762Z,70.60
2023-05-12T06:11:25.918Z,71.00
2023-05-12T06:13:53.654Z,70.70
2023-05-12T06:16:21.966Z,70.90
2023-05-12T06:18:49.999Z,70.80
2023-05-12T06:21:17.789Z,70.80
2023-05-12T06:23:47.200Z,70.80
2023-05-12T06:26:15.201Z,70.70
2023-05-12T06:28:43.122Z,70.80
2023-05-12T06:31:10.465Z,70.90
2023-05-12T06:33:37.954Z,70.80
2023-05-12T06:36:06.246Z,70.80
2023-05-12T06:38:34.479Z,71.40
2023-05-12T06:41:02.132Z,70.70
2023-05-12T06:43:29.778Z,70.70
2023-05-12T06:45:57.367Z,70.60
2023-05-12T06:48:24.930Z,70.60
2023-05-12T06:50:56.137Z,70.50
2023-05-12T06:53:28.908Z,70.50
2023-05-12T06:55:56.764Z,70.60
2023-05-12T06:58:24.643Z,70.60
2023-05-12T07:00:57.719Z,70.70
2023-05-12T07:03:25.638Z,70.60
2023-05-12T07:05:53.236Z,70.70
2023-05-12T07:08:21.085Z,70.90
2023-05-12T07:10:49.143Z,70.90
2023-05-12T07:13:16.911Z,70.80
2023-05-12T07:15:44.589Z,70.80
2023-05-12T07:18:12.259Z,70.70
2023-05-12T07:20:40.128Z,70.80
2023-05-12T07:23:08.125Z,70.70
2023-05-12T07:25:36.155Z,70.70
2023-05-12T07:28:04.307Z,70.70
2023-05-12T07:30:32.224Z,70.60
2023-05-12T07:33:01.549Z,70.60
2023-05-12T07:35:29.500Z,70.60
2023-05-12T07:37:57.545Z,70.60
2023-05-12T07:40:25.388Z,71.20
2023-05-12T07:42:54.177Z,70.40
2023-05-12T07:45:25.585Z,70.40
2023-05-12T07:47:53.561Z,70.50
2023-05-12T07:50:21.819Z,70.40
2023-05-12T07:52:51.926Z,70.50
2023-05-12T07:55:21.691Z,70.50
2023-05-12T07:57:52.967Z,70.50
2023-05-12T08:00:21.142Z,70.60
2023-05-12T08:02:49.291Z,70.60
2023-05-12T08:05:17.543Z,70.60
2023-05-12T08:07:45.696Z,70.50
2023-05-12T08:10:14.323Z,70.60
2023-05-12T08:12:42.947Z,70.50
2023-05-12T08:15:11.439Z,70.50
2023-05-12T08:17:39.625Z,70.60
2023-05-12T08:20:09.406Z,70.50
2023-05-12T08:22:37.568Z,70.50
2023-05-12T08:25:06.366Z,70.40
2023-05-12T08:27:34.576Z,70.40
2023-05-12T08:30:03.110Z,70.30
2023-05-12T08:32:31.088Z,70.30
2023-05-12T08:34:58.826Z,70.30
2023-05-12T08:37:27.655Z,70.20
2023-05-12T08:39:55.858Z,70.20
2023-05-12T08:42:44.897Z,70.10
2023-05-12T08:45:12.994Z,70.60
2023-05-12T08:47:43.202Z,70.10
2023-05-12T08:50:12.189Z,70.00
2023-05-12T08:52:40.493Z,70.00
2023-05-12T08:55:09.917Z,69.90
2023-05-12T08:57:45.872Z,69.90
2023-05-12T09:00:14.210Z,69.90
2023-05-12T09:02:53.301Z,70.00
2023-05-12T09:05:23.594Z,70.00
2023-05-12T09:07:55.687Z,70.10
2023-05-12T09:13:04.611Z,70.20
2023-05-12T09:15:39.604Z,70.30
2023-05-12T09:18:07.439Z,70.40
2023-05-12T09:20:35.752Z,70.30
2023-05-12T09:23:22.258Z,70.30
2023-05-12T09:26:04.278Z,70.30
2023-05-12T09:28:39.428Z,70.30
2023-05-12T09:31:21.441Z,70.30
2023-05-12T09:33:51.135Z,70.20
2023-05-12T09:36:23.104Z,70.40
2023-05-12T09:39:20.141Z,70.30
2023-05-12T09:41:52.176Z,70.80
2023-05-12T09:44:20.127Z,70.20
2023-05-12T09:46:48.625Z,70.20
2023-05-12T09:49:28.428Z,70.30
2023-05-12T09:52:00.586Z,70.30
2023-05-12T09:54:33.645Z,70.30
2023-05-12T09:57:05.504Z,70.20
2023-05-12T09:59:40.000Z,70.20
2023-05-12T10:02:10.447Z,70.20
2023-05-12T10:04:51.272Z,70.10
2023-05-12T10:07:24.183Z,70.20
2023-05-12T10:09:53.028Z,70.10
2023-05-12T10:12:20.565Z,70.00
2023-05-12T10:14:49.542Z,70.10
2023-05-12T10:17:19.889Z,70.00
2023-05-12T10:19:49.621Z,70.00
2023-05-12T10:22:20.126Z,69.90
2023-05-12T10:24:49.759Z,69.90
2023-05-12T10:27:17.421Z,69.80
2023-05-12T10:29:47.133Z,69.80
2023-05-12T10:32:15.116Z,69.70
2023-05-12T10:34:43.622Z,69.70
2023-05-12T10:37:12.440Z,69.70
2023-05-12T10:39:53.208Z,69.90
2023-05-12T10:42:26.272Z,70.00
2023-05-12T10:44:56.873Z,70.10
2023-05-12T10:47:29.765Z,70.20
2023-05-12T10:50:01.242Z,70.00
2023-05-12T10:52:29.173Z,70.20
2023-05-12T10:55:05.032Z,70.10
2023-05-12T10:57:33.573Z,70.60
2023-05-12T11:00:04.006Z,70.70
2023-05-12T11:02:36.405Z,70.70
2023-05-12T11:05:17.367Z,70.70
2023-05-12T11:07:50.524Z,70.70
2023-05-12T11:10:20.044Z,71.30
2023-05-12T11:12:50.071Z,71.00
2023-05-12T11:15:18.368Z,70.70
2023-05-12T11:17:49.115Z,70.40
2023-05-12T11:20:28.841Z,70.20
2023-05-12T11:22:58.181Z,70.60
2023-05-12T11:25:29.119Z,70.80
2023-05-12T11:27:57.143Z,70.60
2023-05-12T11:30:24.994Z,70.40
2023-05-12T11:33:03.596Z,70.30
2023-05-12T11:35:32.981Z,70.20
2023-05-12T11:38:00.794Z,69.70
2023-05-12T11:40:28.954Z,69.00
2023-05-12T11:42:56.846Z,69.00
2023-05-12T11:45:30.267Z,68.70
2023-05-12T11:48:14.324Z,68.50
2023-05-12T11:50:49.382Z,68.50
2023-05-12T11:53:19.477Z,68.40
2023-05-12T11:55:56.605Z,68.40
2023-05-12T11:58:30.722Z,68.40
2023-05-12T12:01:13.155Z,68.20
2023-05-12T12:03:50.359Z,68.20
2023-05-12T12:06:19.597Z,68.20
2023-05-12T12:09:02.820Z,68.10
2023-05-12T12:11:35.303Z,68.00
2023-05-12T12:14:02.978Z,68.00
2023-05-12T12:16:32.361Z,67.80
2023-05-12T12:19:00.712Z,67.90
2023-05-12T12:21:28.842Z,67.80
2023-05-12T12:23:56.392Z,67.80
2023-05-12T12:26:24.440Z,67.70
2023-05-12T12:28:52.518Z,67.70
2023-05-12T12:31:20.553Z,68.00
2023-05-12T12:33:48.142Z,67.50
2023-05-12T12:36:15.633Z,68.20
2023-05-12T12:38:44.074Z,67.40
2023-05-12T12:41:11.985Z,67.40
2023-05-12T12:43:39.541Z,67.20
2023-05-12T12:46:07.845Z,67.30
2023-05-12T12:48:35.860Z,67.10
2023-05-12T12:51:04.213Z,67.10
2023-05-12T12:53:32.419Z,67.10
2023-05-12T12:56:00.796Z,67.10
2023-05-12T12:58:28.468Z,66.90
2023-05-12T13:00:56.758Z,67.20
2023-05-12T13:03:25.294Z,67.10
2023-05-12T13:05:53.086Z,67.20
2023-05-12T13:08:21.325Z,67.10
2023-05-12T13:10:48.984Z,67.00
2023-05-12T13:13:17.092Z,66.90
2023-05-12T13:15:44.641Z,67.10
2023-05-12T13:18:12.692Z,66.90
2023-05-12T13:20:41.273Z,66.90
2023-05-12T13:23:08.883Z,66.70
2023-05-12T13:25:36.891Z,66.70
2023-05-12T13:28:05.794Z,66.60
2023-05-12T13:30:33.785Z,66.50
2023-05-12T13:33:03.229Z,66.50
2023-05-12T13:35:32.968Z,66.40
2023-05-12T13:38:00.913Z,66.50
2023-05-12T13:40:28.432Z,66.40
2023-05-12T13:42:55.903Z,66.30
2023-05-12T13:45:24.126Z,66.20
2023-05-12T13:47:52.165Z,66.30
2023-05-12T13:50:19.917Z,66.30
2023-05-12T13:52:48.176Z,66.10
2023-05-12T13:55:20.825Z,66.10
2023-05-12T13:57:49.954Z,66.10
2023-05-12T14:00:18.003Z,66.10
2023-05-12T14:02:45.748Z,66.00
2023-05-12T14:05:13.917Z,66.10
2023-05-12T14:07:42.857Z,66.00
2023-05-12T14:10:11.874Z,65.90
2023-05-12T14:12:41.293Z,65.80
2023-05-12T14:15:29.101Z,65.90
2023-05-12T14:17:58.734Z,65.90
2023-05-12T14:20:26.396Z,65.80
2023-05-12T14:22:54.567Z,65.60
2023-05-12T14:25:23.249Z,65.70
2023-05-12T14:27:51.248Z,65.60
2023-05-12T14:30:19.399Z,65.40
2023-05-12T14:32:47.505Z,64.80
2023-05-12T14:35:15.331Z,65.00
2023-05-12T14:37:43.147Z,65.20
2023-05-12T14:40:13.811Z,65.10
2023-05-12T14:42:42.657Z,65.00
2023-05-12T14:45:11.006Z,64.80
2023-05-12T14:47:38.959Z,65.00
2023-05-12T14:50:08.067Z,64.90
2023-05-12T14:52:39.188Z,65.00
2023-05-12T14:55:14.466Z,64.90
2023-05-12T14:57:43.391Z,64.80
2023-05-12T15:00:14.448Z,64.80
2023-05-12T15:02:44.648Z,64.60
2023-05-12T15:05:16.426Z,64.50
2023-05-12T15:07:44.544Z,64.60
2023-05-12T15:10:12.850Z,64.60
2023-05-12T15:12:40.741Z,64.50
2023-05-12T15:15:12.053Z,64.70
2023-05-12T15:17:40.221Z,64.60
2023-05-12T15:20:10.142Z,64.50
2023-05-12T15:22:38.146Z,64.30
2023-05-12T15:25:06.696Z,64.50
2023-05-12T15:27:34.852Z,64.50
2023-05-12T15:30:03.763Z,64.40
2023-05-12T15:32:31.833Z,64.40
2023-05-12T15:34:59.438Z,64.50
2023-05-12T15:37:27.069Z,64.60
2023-05-12T15:39:54.802Z,64.50
2023-05-12T15:42:26.583Z,64.40
2023-05-12T15:45:00.496Z,64.40
2023-05-12T15:47:28.172Z,64.40
2023-05-12T15:49:56.414Z,64.50
2023-05-12T15:52:25.094Z,64.60
2023-05-12T15:54:52.669Z,64.50
2023-05-12T15:57:20.423Z,64.40
2023-05-12T15:59:50.082Z,64.40
2023-05-12T16:02:17.927Z,64.50
2023-05-12T16:04:45.686Z,64.60
2023-05-12T16:07:13.344Z,64.40
2023-05-12T16:09:41.037Z,64.30
2023-05-12T16:12:09.464Z,64.50
2023-05-12T16:14:37.082Z,64.30
2023-05-12T16:17:05.186Z,64.20
2023-05-12T16:19:32.792Z,64.30
2023-05-12T16:22:00.444Z,64.20
2023-05-12T16:24:28.919Z,64.30
2023-05-12T16:26:57.071Z,64.30
2023-05-12T16:29:24.909Z,64.30
2023-05-12T16:31:52.525Z,64.30
2023-05-12T16:34:21.068Z,64.40
2023-05-12T16:36:49.146Z,64.30
2023-05-12T16:39:18.233Z,64.30
2023-05-12T16:41:45.965Z,64.30
2023-05-12T16:44:13.567Z,64.30
2023-05-12T16:46:41.787Z,64.30
2023-05-12T16:49:09.562Z,64.40
2023-05-12T16:51:37.120Z,64.20
2023-05-12T16:54:04.883Z,64.30
2023-05-12T16:56:32.659Z,64.20
2023-05-12T16:59:01.231Z,64.30
2023-05-12T17:01:31.915Z,64.20
2023-05-12T17:04:00.166Z,64.20
2023-05-12T17:06:28.592Z,64.20
2023-05-12T17:08:56.354Z,64.20
2023-05-12T17:11:25.031Z,64.20
2023-05-12T17:13:53.852Z,64.20
2023-05-12T17:16:21.475Z,64.30
2023-05-12T17:21:20.367Z,64.20
2023-05-12T17:23:48.642Z,64.20
2023-05-12T17:26:16.800Z,64.30
2023-05-12T17:28:44.688Z,64.30
2023-05-12T17:31:12.357Z,64.40
2023-05-12T17:33:39.948Z,64.40
2023-05-12T17:36:12.753Z,64.40
2023-05-12T17:38:41.693Z,64.30
2023-05-12T17:41:10.381Z,64.30
2023-05-12T17:43:37.834Z,65.00
2023-05-12T17:46:08.012Z,64.30
2023-05-12T17:48:35.791Z,64.30
2023-05-12T17:51:04.223Z,64.30
2023-05-12T17:53:34.208Z,64.40
2023-05-12T17:56:05.172Z,64.30
2023-05-12T17:58:32.823Z,64.20
2023-05-12T18:01:00.755Z,64.30
2023-05-12T18:03:28.835Z,64.20
2023-05-12T18:05:56.789Z,64.20
2023-05-12T18:08:24.643Z,64.30
2023-05-12T18:10:52.551Z,64.30
2023-05-12T18:13:20.190Z,64.30
2023-05-12T18:15:50.426Z,64.30
2023-05-12T18:18:18.336Z,64.20
2023-05-12T18:20:46.295Z,64.20
2023-05-12T18:23:14.194Z,64.30
2023-05-12T18:25:43.340Z,64.40
2023-05-12T18:28:11.767Z,64.40
2023-05-12T18:30:39.840Z,64.40
2023-05-12T18:33:07.759Z,64.30
2023-05-12T18:35:35.413Z,64.20
2023-05-12T18:38:03.189Z,64.20
2023-05-12T18:40:30.915Z,64.20
2023-05-12T18:42:58.858Z,64.20
2023-05-12T18:45:26.378Z,64.20
2023-05-12T18:47:53.933Z,64.10
2023-05-12T18:50:21.801Z,64.00
2023-05-12T18:52:49.607Z,63.80
2023-05-12T18:55:17.286Z,63.60
2023-05-12T18:57:44.867Z,63.70
2023-05-12T19:00:13.281Z,63.60
2023-05-12T19:02:42.648Z,64.20
2023-05-12T19:05:10.509Z,64.50
2023-05-12T19:07:38.278Z,64.90
2023-05-12T19:10:06.768Z,65.00
2023-05-12T19:12:34.911Z,64.90
2023-05-12T19:15:03.041Z,64.90
2023-05-12T19:17:30.644Z,64.70
2023-05-12T19:19:58.323Z,64.70
2023-05-12T19:22:26.870Z,64.50
2023-05-12T19:24:56.119Z,64.50
2023-05-12T19:27:23.885Z,64.50
2023-05-12T19:29:51.582Z,64.20
2023-05-12T19:32:19.170Z,64.10
2023-05-12T19:34:51.497Z,64.00
2023-05-12T19:37:20.605Z,63.90
2023-05-12T19:39:48.541Z,63.70
2023-05-12T19:42:16.334Z,63.60
2023-05-12T19:44:44.250Z,63.40
2023-05-12T19:47:13.101Z,63.40
2023-05-12T19:49:40.724Z,64.00
2023-05-12T19:52:09.149Z,63.80
2023-05-12T19:54:37.456Z,63.90
2023-05-12T19:57:05.349Z,63.80
2023-05-12T19:59:33.589Z,63.80
2023-05-12T20:02:01.383Z,63.70
2023-05-12T20:04:29.322Z,66.80
2023-05-12T20:06:57.749Z,67.20
2023-05-12T20:09:26.306Z,67.00
2023-05-12T20:11:54.124Z,65.30
2023-05-12T20:14:21.883Z,65.30
2023-05-12T20:16:49.582Z,66.70
2023-05-12T20:19:17.866Z,66.50
2023-05-12T20:21:45.733Z,65.90
2023-05-12T20:24:13.679Z,66.50
2023-05-12T20:26:41.445Z,65.80
2023-05-12T20:29:09.411Z,66.10
2023-05-12T20:31:37.560Z,66.20
2023-05-12T20:34:05.329Z,65.90
2023-05-12T20:36:33.237Z,66.00
2023-05-12T20:39:00.858Z,65.60
2023-05-12T20:41:28.636Z,66.10
2023-05-12T20:43:56.597Z,65.70
2023-05-12T20:46:25.221Z,65.50
2023-05-12T20:48:53.065Z,65.50
2023-05-12T20:51:21.303Z,65.50
2023-05-12T20:53:49.133Z,65.50
2023-05-12T20:56:17.050Z,65.50
2023-05-12T20:58:44.886Z,65.60
2023-05-12T21:01:12.838Z,65.50
2023-05-12T21:03:40.666Z,65.40
2023-05-12T21:06:08.816Z,65.50
2023-05-12T21:08:36.470Z,65.40
2023-05-12T21:11:04.325Z,65.50
2023-05-12T21:13:32.010Z,65.50
2023-05-12T21:16:00.401Z,65.50
2023-05-12T21:18:28.305Z,65.70
2023-05-12T21:20:55.799Z,65.60
2023-05-12T21:23:23.403Z,65.60
2023-05-12T21:25:54.124Z,66.30
2023-05-12T21:28:22.421Z,65.70
2023-05-12T21:30:49.997Z,65.70
2023-05-12T21:33:17.782Z,65.80
2023-05-12T21:35:45.939Z,65.60
2023-05-12T21:38:14.107Z,66.30
2023-05-12T21:40:42.106Z,65.70
2023-05-12T21:43:09.720Z,65.70
2023-05-12T21:45:37.548Z,65.70
2023-05-12T21:48:05.943Z,65.70
2023-05-12T21:50:33.832Z,65.60
2023-05-12T21:53:01.640Z,65.60
2023-05-12T21:55:29.293Z,65.60
2023-05-12T21:57:56.872Z,65.60
2023-05-12T22:00:24.820Z,65.60
2023-05-12T22:02:52.633Z,65.60
2023-05-12T22:05:20.362Z,65.50
2023-05-12T22:07:48.752Z,65.50
2023-05-12T22:10:17.016Z,65.50
2023-05-12T22:12:45.987Z,65.50
2023-05-12T22:15:13.943Z,65.50
2023-05-12T22:17:41.703Z,65.50
2023-05-12T22:20:10.503Z,65.50
2023-05-12T22:22:38.585Z,65.40
2023-05-12T22:25:07.028Z,65.50
2023-05-12T22:27:34.892Z,65.50
2023-05-12T22:30:02.862Z,65.50
2023-05-12T22:32:30.726Z,65.40
2023-05-12T22:34:58.320Z,65.50
2023-05-12T22:37:26.395Z,65.40
2023-05-12T22:39:54.186Z,65.50
2023-05-12T22:42:22.470Z,65.50
2023-05-12T22:44:51.193Z,65.40
2023-05-12T22:47:19.128Z,65.40
2023-05-12T22:49:50.286Z,65.40
2023-05-12T22:52:18.113Z,65.30
2023-05-12T22:54:45.889Z,65.30
2023-05-12T22:57:13.670Z,65.30
2023-05-12T22:59:41.355Z,65.30
2023-05-12T23:02:09.021Z,65.40
2023-05-12T23:04:36.757Z,65.50
2023-05-12T23:07:05.853Z,65.40
2023-05-12T23:09:34.877Z,65.50
2023-05-12T23:12:06.605Z,65.50
2023-05-12T23:14:34.451Z,65.50
2023-05-12T23:17:02.233Z,65.60
2023-05-12T23:19:30.263Z,65.50
2023-05-12T23:21:57.813Z,65.40
2023-05-12T23:24:25.570Z,66.00
2023-05-12T23:26:53.474Z,65.50
2023-05-12T23:29:21.069Z,65.40
2023-05-12T23:31:48.747Z,65.30
2023-05-12T23:34:16.417Z,65.30
2023-05-12T23:36:43.963Z,65.30
2023-05-12T23:39:11.699Z,65.30
2023-05-12T23:41:39.301Z,65.20
2023-05-12T23:44:07.304Z,65.50
2023-05-12T23:46:34.799Z,65.20
2023-05-12T23:49:02.550Z,65.20
2023-05-12T23:51:30.498Z,65.20
2023-05-12T23:53:58.112Z,65.20
2023-05-12T23:56:25.686Z,65.20
2023-05-12T23:58:53.358Z,65.20
